deformed-offering

Nearby METAR Reports

 

KNUQ - Moffett Nas/Mtn, California, USA
Distance from station: N 9mi, 14km
Updated: Tue, 23-Jul-2019 12:56pm PDT
Clear
Clear
 Wind from NNW
Wind: NNW 13 mph , 20 km/h
Temperature: 73°F , 23°C
Dew Point: 57°F , 14°C
Humidity: 57%
Barometer: 30.03 inHg , 1016.9 hPa
Clouds: Clear
Visibility: 10 miles , 16 km
2019/07/23 19:56 KNUQ 231956Z 33011KT 10SM CLR 23/14 A3003 RMK AO2 SLP172 T02330144 $
KSJC - San Jose, California, USA
Distance from station: NE 9mi, 14km
Updated: Tue, 23-Jul-2019 1:53pm PDT
Few Clouds
Few Clouds
 Wind from NW
Wind: NW 13 mph , 20 km/h
Temperature: 81°F , 27°C
Heat Index: 82°F , 28°C
Dew Point: 61°F , 16°C
Humidity: 51%
Barometer: 30.01 inHg , 1016.3 hPa
Clouds: Few Clouds
Visibility: 10 miles , 16 km
Cloud details: Few Clouds 6500 ft
Few Clouds 8500 ft
2019/07/23 20:53 KSJC 232053Z 32011KT 10SM FEW065 FEW085 27/16 A3001 RMK AO2 SLP163 T02670156 57004 $
 
KRHV - San Jose/Reid, California, USA
Distance from station: ENE 12mi, 19km
Updated: Tue, 23-Jul-2019 1:47pm PDT
Clear
Clear
 Wind from NW
Wind: NW 9 mph , 15 km/h
Temperature: 84°F , 29°C
Dew Point: 55°F , 13°C
Humidity: 37%
Barometer: 30.01 inHg , 1016.3 hPa
Clouds: Clear
Visibility: 10 miles , 16 km
2019/07/23 20:47 KRHV 232047Z 31008KT 10SM SKC 29/13 A3001
KPAO - Palo Alto, California, USA
Distance from station: NNW 14mi, 23km
Updated: Tue, 23-Jul-2019 1:47pm PDT
Clear
Clear
 Wind from NNW
Wind: NNW 16 mph , 26 km/h
Temperature: 72°F , 22°C
Dew Point: 57°F , 14°C
Humidity: 61%
Barometer: 30.03 inHg , 1016.9 hPa
Clouds: Clear
Visibility: 10 miles , 16 km
2019/07/23 20:47 KPAO 232047Z 34014KT 10SM SKC 22/14 A3003
 
KSQL - San Carlos Airpo, California, USA
Distance from station: NW 21mi, 34km
Updated: Tue, 23-Jul-2019 12:48pm PDT
Clear
Clear
 Wind from NNW
Wind: NNW 9 mph , 15 km/h
Temperature: 73°F , 23°C
Dew Point: 55°F , 13°C
Humidity: 53%
Barometer: 30.03 inHg , 1016.9 hPa
Clouds: Clear
Visibility: 10 miles , 16 km
2019/07/23 19:48 KSQL 231948Z 33008KT 10SM SKC 23/13 A3003
KE16 - San Martin, California, USA
Distance from station: ESE 27mi, 43km
Updated: Tue, 23-Jul-2019 1:00pm PDT
Clear
Clear
 Wind from N
Wind: N 8 mph , 13 km/h
Temperature: 90°F , 32°C
Dew Point: 46°F , 8°C
Humidity: 22%
Barometer: 30.01 inHg , 1016.3 hPa
Clouds: Clear
Visibility: 10 miles , 16 km
2019/07/23 20:00 KE16 232000Z AUTO 35007KT 10SM CLR 32/08 A3001 RMK AO2
 
KWVI - Watsonville, California, USA
Distance from station: SSE 27mi, 44km
Updated: Tue, 23-Jul-2019 1:53pm PDT
Clear
Clear
 Wind from S
Wind: S 7 mph , 11 km/h
Temperature: 72°F , 22°C
Dew Point: 57°F , 14°C
Humidity: 61%
Barometer: 30.04 inHg , 1017.3 hPa
Clouds: Clear
Visibility: 10 miles , 16 km
2019/07/23 20:53 KWVI 232053Z AUTO 18006KT 10SM CLR 22/14 A3004 RMK AO2 SLP170 T02220139 58001
KHWD - Hayward, California, USA
Distance from station: N 28mi, 44km
Updated: Tue, 23-Jul-2019 1:54pm PDT
Clear
Clear
 Wind from WNW
Wind: WNW 13 mph , 20 km/h
Temperature: 72°F , 22°C
Dew Point: 55°F , 13°C
Humidity: 57%
Barometer: 30.03 inHg , 1016.9 hPa
Clouds: Clear
Visibility: 10 miles , 16 km
2019/07/23 20:54 KHWD 232054Z 29011KT 10SM CLR 22/13 A3003 RMK AO2 SLP179 T02170128 56002
 
KSFO - San Francisco, California, USA
Distance from station: NW 30mi, 49km
Updated: Tue, 23-Jul-2019 12:56pm PDT
Few Clouds
Few Clouds
 Wind from WNW
Wind: WNW 18 mph , 30 km/h, Gust: 23 mph , 37 km/h
Temperature: 68°F , 20°C
Dew Point: 54°F , 12°C
Humidity: 60%
Barometer: 30.03 inHg , 1016.9 hPa
Clouds: Few Clouds
Visibility: 10 miles , 16 km
Cloud details: Few Clouds 900 ft
Few Clouds 3000 ft
2019/07/23 19:56 KSFO 231956Z 30016G20KT 10SM FEW009 FEW030 20/12 A3003 RMK AO2 SLP170 T02000117
KHAF - Half Moon Bay, California, USA
Distance from station: WNW 31mi, 50km
Updated: Tue, 23-Jul-2019 1:55pm PDT
Overcast
Overcast
 Wind from NNW
Wind: NNW 7 mph , 11 km/h
Temperature: 59°F , 15°C
Dew Point: 55°F , 13°C
Humidity: 88%
Barometer: 30.09 inHg , 1019 hPa
Clouds: Overcast
Visibility: 9 miles , 14 km
Cloud details: Overcast 500 ft
2019/07/23 20:55 KHAF 232055Z AUTO 34006KT 9SM OVC005 15/13 A3009 RMK AO2
 
KOAK - Oakland, California, USA
Distance from station: NNW 31mi, 50km
Updated: Tue, 23-Jul-2019 1:53pm PDT
Few Clouds
Few Clouds
 Wind from WNW
Wind: WNW 14 mph , 22 km/h
Temperature: 72°F , 22°C
Dew Point: 55°F , 13°C
Humidity: 57%
Barometer: 30.04 inHg , 1017.3 hPa
Clouds: Few Clouds
Visibility: 10 miles , 16 km
Cloud details: Few Clouds 800 ft
2019/07/23 20:53 KOAK 232053Z 29012KT 10SM FEW008 22/13 A3004 RMK AO2 SLP171 T02170128 58004 $
KLVK - Livermore, California, USA
Distance from station: NNE 31mi, 51km
Updated: Tue, 23-Jul-2019 1:53pm PDT
Clear
Clear
 Wind from W
Wind: W 15 mph , 24 km/h
Temperature: 90°F , 32°C
Dew Point: 48°F , 9°C
Humidity: 24%
Barometer: 29.98 inHg , 1015.2 hPa
Clouds: Clear
Visibility: 10 miles , 16 km
2019/07/23 20:53 KLVK 232053Z 28013KT 10SM CLR 32/09 A2998 RMK AO2 SLP149 T03170089 58004
 
KCVH - Hollister Muni, California, USA
Distance from station: SE 42mi, 68km
Updated: Tue, 23-Jul-2019 1:55pm PDT
Clear
Clear
 Wind from W
Wind: W 16 mph , 26 km/h
Temperature: 86°F , 30°C
Dew Point: 55°F , 13°C
Humidity: 35%
Barometer: 29.99 inHg , 1015.6 hPa
Clouds: Clear
Visibility: 10 miles , 16 km
2019/07/23 20:55 KCVH 232055Z AUTO 26014KT 10SM CLR 30/13 A2999 RMK A01
KSNS - Salinas, California, USA
Distance from station: SSE 48mi, 77km
Updated: Tue, 23-Jul-2019 1:53pm PDT
Clear
Clear
 Wind from NW
Wind: NW 15 mph , 24 km/h
Temperature: 68°F , 20°C
Dew Point: 55°F , 13°C
Humidity: 64%
Barometer: 30.03 inHg , 1016.9 hPa
Clouds: Clear
Visibility: 10 miles , 16 km
2019/07/23 20:53 KSNS 232053Z 31013KT 10SM CLR 20/13 A3003 RMK AO2 SLP179 T02000128 58001
 
KMRY - Monterey, California, USA
Distance from station: SSE 49mi, 78km
Updated: Tue, 23-Jul-2019 1:54pm PDT
Clear
Clear
 Wind from NNW
Wind: NNW 10 mph , 17 km/h
Temperature: 64°F , 18°C
Dew Point: 54°F , 12°C
Humidity: 68%
Barometer: 30.06 inHg , 1017.9 hPa
Clouds: Clear
Visibility: 10 miles , 16 km
2019/07/23 20:54 KMRY 232054Z 33009KT 10SM CLR 18/12 A3006 RMK AO2 SLP192 T01780117 58001
KCCR - Concord, California, USA
Distance from station: N 50mi, 81km
Updated: Tue, 23-Jul-2019 1:53pm PDT
Clear
Clear
 Wind from NW
Wind: NW 14 mph , 22 km/h
Temperature: 91°F , 33°C
Dew Point: 50°F , 10°C
Humidity: 24%
Barometer: 29.97 inHg , 1014.9 hPa
Clouds: Clear
Visibility: 10 miles , 16 km
2019/07/23 20:53 KCCR 232053Z 31012KT 10SM CLR 33/10 A2997 RMK AO2 SLP134 T03280100 58008
deformed-offering